Time;durP1;ratioP1;P1;durP2;ratioP2;P2;SDS_P1;SDS_P2;PMS_P1;PMS_P2;Temp;Humidity;BMP_temperature;BMP_pressure;BME280_temperature;BME280_humidity;BME280_pressure;Samples;Min_cycle;Max_cycle;Signal;HPM_P1;HPM_P2
2021/04/23 00:02:28;;;;;;;3.63;2.70;;;7.70;82.50;;;8.91;100.00;101003.22;4906296;28;100171;-61
2021/04/23 00:05:41;;;;;;;5.80;3.10;;;7.60;82.40;;;8.97;100.00;101010.72;4921280;28;100544;-62
2021/04/23 00:08:53;;;;;;;5.50;3.10;;;7.60;82.30;;;8.93;100.00;101009.28;4926625;28;100241;-59
2021/04/23 00:12:08;;;;;;;3.70;2.60;;;7.60;82.40;;;8.87;100.00;101008.97;4925826;28;100058;-61
2021/04/23 00:15:21;;;;;;;6.70;3.03;;;7.60;82.70;;;8.85;100.00;101008.25;4929027;28;101174;-61
2021/04/23 00:18:33;;;;;;;9.10;3.20;;;7.60;82.90;;;8.83;100.00;101018.19;4945881;28;100494;-62
2021/04/23 00:21:46;;;;;;;7.60;3.03;;;7.60;82.80;;;8.75;100.00;101008.19;4946938;28;100139;-61
2021/04/23 00:24:57;;;;;;;5.80;2.73;;;7.60;82.80;;;8.75;100.00;101007.34;4947485;28;99898;-61
2021/04/23 00:28:09;;;;;;;7.10;2.80;;;7.60;83.00;;;8.66;100.00;101006.25;4946948;28;99920;-62
2021/04/23 00:31:22;;;;;;;6.77;3.17;;;7.50;83.00;;;8.62;100.00;101010.19;4946195;28;100138;-61
2021/04/23 00:34:33;;;;;;;5.43;3.30;;;7.50;83.10;;;8.54;100.00;101001.97;4945067;28;100208;-61
2021/04/23 00:37:46;;;;;;;5.17;3.57;;;7.50;83.40;;;8.45;100.00;101005.41;4947500;28;99887;-60
2021/04/23 00:41:05;;;;;;;7.17;3.33;;;7.40;83.90;;;8.37;100.00;101014.03;4937094;28;99786;-60
2021/04/23 00:44:17;;;;;;;5.60;3.27;;;7.30;84.60;;;8.28;100.00;101010.25;4934116;28;100431;-61
2021/04/23 00:47:29;;;;;;;5.50;3.60;;;7.30;85.10;;;8.29;100.00;101005.78;4945685;28;100070;-61
2021/04/23 00:50:48;;;;;;;7.70;3.27;;;7.20;85.90;;;8.16;100.00;101003.25;4945697;28;100531;-60
2021/04/23 00:54:03;;;;;;;7.80;3.63;;;7.10;86.50;;;8.16;100.00;101013.09;4926134;28;101348;-61
2021/04/23 00:57:14;;;;;;;6.13;3.97;;;7.00;87.30;;;8.11;100.00;101010.81;4946760;28;102209;-61
2021/04/23 01:00:38;;;;;;;6.17;3.83;;;7.00;88.00;;;8.04;100.00;101006.06;4931886;28;100085;-60
2021/04/23 01:03:51;;;;;;;7.83;3.33;;;6.90;89.10;;;8.01;100.00;101006.34;4946040;28;99951;-60
2021/04/23 01:07:03;;;;;;;6.33;3.13;;;6.80;90.20;;;7.89;100.00;101010.84;4926319;28;103092;-61
2021/04/23 01:10:16;;;;;;;5.67;3.80;;;6.70;90.50;;;7.79;100.00;101018.72;4945907;28;101036;-61
2021/04/23 01:13:31;;;;;;;7.47;3.43;;;6.60;91.10;;;7.80;100.00;101011.56;4911152;28;100313;-61
2021/04/23 01:16:55;;;;;;;6.23;4.03;;;6.50;91.90;;;7.71;100.00;101010.50;4904537;28;100294;-60
2021/04/23 01:23:27;;;;;;;6.97;3.37;;;6.30;92.80;;;7.60;100.00;101028.31;4905692;28;100158;-61
2021/04/23 01:26:40;;;;;;;7.03;3.60;;;6.20;93.10;;;7.50;100.00;101033.50;4906901;28;100202;-61
2021/04/23 01:29:51;;;;;;;8.73;4.07;;;6.10;93.50;;;7.52;100.00;101031.56;4907128;28;99915;-60
2021/04/23 01:33:04;;;;;;;7.57;4.07;;;6.10;94.10;;;7.43;100.00;101033.13;4905962;28;100804;-61
2021/04/23 01:36:21;;;;;;;8.93;3.97;;;6.00;94.40;;;7.41;100.00;101035.09;4906319;28;100485;-61
2021/04/23 01:39:44;;;;;;;9.43;4.43;;;6.00;94.90;;;7.34;100.00;101028.53;4886924;28;100125;-62
2021/04/23 01:42:55;;;;;;;7.73;5.07;;;5.90;95.30;;;7.24;100.00;101037.34;4906265;28;100165;-61
2021/04/23 01:46:07;;;;;;;10.17;4.87;;;5.90;95.70;;;7.11;100.00;101027.66;4906055;28;101574;-60
2021/04/23 01:49:18;;;;;;;9.93;4.43;;;5.80;95.90;;;7.02;100.00;101027.50;4905454;28;100684;-61
2021/04/23 01:59:44;;;;;;;10.03;4.33;;;5.60;96.90;;;6.88;100.00;101025.91;4925503;28;100849;-59
2021/04/23 02:03:01;;;;;;;7.40;4.50;;;5.50;97.60;;;6.83;100.00;101028.03;4905380;28;100155;-62
2021/04/23 02:06:13;;;;;;;10.00;4.40;;;5.40;98.20;;;6.81;100.00;101032.63;4905918;28;99939;-60
2021/04/23 02:09:26;;;;;;;8.53;4.43;;;5.30;98.40;;;6.71;100.00;101036.94;4905459;28;100149;-60
2021/04/23 02:12:38;;;;;;;10.73;3.83;;;5.30;98.60;;;6.63;100.00;101040.19;4907836;28;101116;-60
2021/04/23 02:16:02;;;;;;;9.57;4.30;;;5.20;98.90;;;6.58;100.00;101037.03;4909465;28;100455;-60
2021/04/23 02:19:14;;;;;;;10.67;4.90;;;5.20;99.30;;;6.49;100.00;101041.22;4934418;28;100078;-59
2021/04/23 02:22:25;;;;;;;8.10;4.67;;;5.20;99.70;;;6.48;100.00;101046.66;4948868;28;100027;-61
2021/04/23 02:25:38;;;;;;;9.37;4.63;;;5.10;99.90;;;6.47;100.00;101035.16;4932606;28;100178;-62
2021/04/23 02:28:50;;;;;;;10.90;5.00;;;5.10;99.90;;;6.45;100.00;101047.72;4930571;28;101786;-61
2021/04/23 02:32:05;;;;;;;8.53;4.87;;;5.10;99.90;;;6.49;100.00;101046.53;4947359;28;100146;-60
2021/04/23 02:35:17;;;;;;;7.20;4.27;;;5.20;99.90;;;6.49;100.00;101045.69;4948035;28;100333;-61
2021/04/23 02:38:28;;;;;;;11.83;4.53;;;5.20;99.90;;;6.49;100.00;101049.19;4947073;28;101370;-60
2021/04/23 02:41:40;;;;;;;8.37;4.40;;;5.20;99.90;;;6.43;100.00;101049.63;4949480;28;100168;-60
2021/04/23 02:44:56;;;;;;;7.10;4.20;;;5.20;99.90;;;6.33;100.00;101053.09;4947557;28;100308;-61
2021/04/23 02:48:09;;;;;;;10.87;4.60;;;5.20;99.90;;;6.24;100.00;101056.41;4947674;28;99991;-61
2021/04/23 02:51:24;;;;;;;8.43;5.07;;;5.20;99.90;;;6.15;100.00;101057.09;4948221;28;100685;-61
2021/04/23 02:54:36;;;;;;;8.33;4.77;;;5.10;99.90;;;6.12;100.00;101050.19;4947239;28;101061;-61
2021/04/23 02:57:47;;;;;;;8.03;5.20;;;5.10;99.90;;;6.05;100.00;101059.56;4937126;28;100159;-61
2021/04/23 03:01:02;;;;;;;11.13;5.50;;;5.00;99.90;;;6.03;100.00;101064.16;4929010;28;100030;-60
2021/04/23 03:04:15;;;;;;;7.63;5.33;;;5.00;99.90;;;5.97;100.00;101069.88;4927741;28;100676;-59
2021/04/23 03:07:26;;;;;;;14.13;4.87;;;4.90;99.90;;;5.93;100.00;101074.59;4928036;28;100521;-61
2021/04/23 03:14:27;;;;;;;7.60;5.23;;;4.90;99.90;;;6.03;100.00;101072.13;4928597;28;100036;-60
2021/04/23 03:17:38;;;;;;;7.43;4.90;;;4.90;99.90;;;6.09;100.00;101064.53;4928629;28;99898;-60
2021/04/23 03:20:52;;;;;;;9.60;5.13;;;5.00;99.90;;;6.11;100.00;101067.94;4929185;28;99834;-61
2021/04/23 03:24:04;;;;;;;8.37;5.23;;;5.00;99.90;;;6.17;100.00;101073.78;4932553;28;100053;-61
2021/04/23 03:27:16;;;;;;;9.77;5.30;;;5.00;99.90;;;6.26;100.00;101076.63;4948507;28;100106;-61
2021/04/23 03:30:41;;;;;;;12.80;5.57;;;5.00;99.90;;;6.26;100.00;101070.44;4947820;28;100322;-61
2021/04/23 03:33:54;;;;;;;10.67;5.03;;;5.10;99.90;;;6.32;100.00;101072.66;4946945;28;99961;-61
2021/04/23 03:37:06;;;;;;;13.23;6.60;;;5.10;99.90;;;6.34;100.00;101071.59;4947134;28;100223;-58
2021/04/23 03:40:58;;;;;;;8.50;5.43;;;5.20;99.90;;;6.39;100.00;101082.75;4949594;28;100049;-62
2021/04/23 03:44:09;;;;;;;11.27;5.87;;;5.20;99.90;;;6.41;100.00;101082.63;4883073;28;101577;-61
2021/04/23 03:47:20;;;;;;;12.13;5.13;;;5.20;99.90;;;6.44;100.00;101090.34;4869974;28;100821;-59
2021/04/23 03:50:34;;;;;;;12.60;5.63;;;5.20;99.90;;;6.44;100.00;101093.88;4946373;28;100187;-59
2021/04/23 03:53:46;;;;;;;10.03;6.40;;;5.30;99.90;;;6.42;100.00;101098.47;4948442;28;100104;-61
2021/04/23 03:56:57;;;;;;;10.87;5.67;;;5.30;99.90;;;6.54;100.00;101103.84;4955576;28;99549;-61
2021/04/23 04:00:08;;;;;;;10.77;6.10;;;5.30;99.90;;;6.52;100.00;101101.31;4946945;28;100045;-62
2021/04/23 04:03:19;;;;;;;14.70;6.43;;;5.40;99.90;;;6.59;100.00;101114.97;4947106;28;99935;-59
2021/04/23 04:06:31;;;;;;;9.83;6.07;;;5.40;99.90;;;6.59;100.00;101118.50;4929991;28;100194;-62
2021/04/23 04:09:45;;;;;;;12.53;6.30;;;5.40;99.90;;;6.58;100.00;101123.91;4948816;28;99666;-60
2021/04/23 04:12:56;;;;;;;10.67;5.53;;;5.50;99.90;;;6.54;100.00;101122.47;4952504;28;100205;-61
2021/04/23 04:16:08;;;;;;;12.03;6.20;;;5.50;99.90;;;6.61;100.00;101127.22;4946307;28;99933;-61
2021/04/23 04:19:19;;;;;;;11.10;6.20;;;5.50;99.90;;;6.60;100.00;101127.31;4949923;28;100056;-60
2021/04/23 04:22:31;;;;;;;11.77;6.57;;;5.50;99.90;;;6.65;100.00;101128.69;4911504;28;100237;-61
2021/04/23 04:25:52;;;;;;;10.80;6.40;;;5.50;99.90;;;6.64;100.00;101144.75;4916174;28;99919;-61
2021/04/23 04:29:04;;;;;;;8.63;6.37;;;5.60;99.90;;;6.69;100.00;101139.94;4907775;28;99894;-60
2021/04/23 04:32:15;;;;;;;13.77;6.40;;;5.60;99.90;;;6.62;100.00;101130.72;4908861;28;100274;-60
2021/04/23 04:35:27;;;;;;;13.07;7.37;;;5.60;99.90;;;6.67;100.00;101139.22;4889814;28;100550;-60
2021/04/23 04:42:09;;;;;;;10.97;6.77;;;5.60;99.90;;;6.69;100.00;101146.09;4914187;28;99251;-58
2021/04/23 04:45:23;;;;;;;9.57;6.73;;;5.70;99.90;;;6.72;100.00;101151.19;4918202;28;97762;-61
2021/04/23 04:48:35;;;;;;;14.00;6.73;;;5.70;99.90;;;6.73;100.00;101152.06;4925456;28;99853;-60
2021/04/23 04:51:46;;;;;;;15.10;8.00;;;5.70;99.90;;;6.75;100.00;101155.47;4958524;28;99592;-61
2021/04/23 04:54:57;;;;;;;13.27;6.73;;;5.70;99.90;;;6.73;100.00;101162.69;4946036;28;99922;-61
2021/04/23 04:58:10;;;;;;;15.73;7.60;;;5.70;99.90;;;6.77;100.00;101164.19;4920744;28;100057;-60
2021/04/23 05:01:22;;;;;;;10.93;7.00;;;5.70;99.90;;;6.75;100.00;101174.06;4946151;28;100944;-60
2021/04/23 05:04:33;;;;;;;14.63;6.87;;;5.70;99.90;;;6.79;100.00;101164.91;4951628;28;99889;-59
2021/04/23 05:07:56;;;;;;;13.20;7.80;;;5.70;99.90;;;6.84;100.00;101165.41;4947318;28;100118;-61
2021/04/23 05:11:07;;;;;;;14.10;6.90;;;5.80;99.90;;;6.89;100.00;101173.91;4951904;28;99653;-60
2021/04/23 05:14:19;;;;;;;11.40;6.60;;;5.80;99.90;;;6.85;100.00;101178.59;4951686;28;100038;-60
2021/04/23 05:17:31;;;;;;;15.60;8.00;;;5.80;99.90;;;6.89;100.00;101175.72;4949771;28;99816;-60
2021/04/23 05:20:43;;;;;;;15.97;7.27;;;5.80;99.90;;;6.85;100.00;101183.06;4942263;28;99986;-60
2021/04/23 05:23:54;;;;;;;14.27;7.13;;;5.90;99.90;;;6.92;100.00;101184.34;4947205;28;100008;-61
2021/04/23 05:27:06;;;;;;;15.37;6.70;;;5.90;99.90;;;6.93;100.00;101190.47;4950751;28;99698;-60
2021/04/23 05:30:20;;;;;;;13.50;7.50;;;5.90;99.90;;;6.96;100.00;101188.47;4952257;28;100007;-60
2021/04/23 05:33:32;;;;;;;11.97;7.47;;;5.90;99.90;;;6.95;100.00;101189.41;4952810;28;99599;-59
2021/04/23 05:36:45;;;;;;;13.03;6.83;;;5.90;99.90;;;7.00;100.00;101191.75;4953883;28;99360;-62
2021/04/23 05:39:56;;;;;;;12.83;6.93;;;6.00;99.90;;;7.02;100.00;101193.34;4959262;28;97900;-61
2021/04/23 05:43:08;;;;;;;11.90;8.00;;;6.00;99.90;;;7.13;100.00;101177.41;4954590;28;100021;-59
2021/04/23 05:46:20;;;;;;;15.43;7.50;;;6.00;99.90;;;7.08;100.00;101190.22;4953305;28;98131;-61
2021/04/23 05:49:32;;;;;;;12.67;7.60;;;6.10;99.90;;;7.18;100.00;101183.22;4958681;28;97819;-62
2021/04/23 05:52:43;;;;;;;9.00;6.70;;;6.10;99.90;;;7.16;100.00;101187.00;4961879;28;96653;-62
2021/04/23 05:55:54;;;;;;;15.97;7.80;;;6.20;99.90;;;7.24;100.00;101189.06;4950943;28;101831;-62
2021/04/23 05:59:05;;;;;;;16.27;7.63;;;6.20;99.90;;;7.37;100.00;101188.03;4950253;28;99813;-61
2021/04/23 06:02:18;;;;;;;10.57;6.50;;;6.30;99.90;;;7.38;100.00;101189.75;4932324;28;98647;-61
2021/04/23 06:05:30;;;;;;;13.37;7.07;;;6.40;99.90;;;7.48;100.00;101184.56;4947129;28;100098;-61
2021/04/23 06:08:41;;;;;;;14.40;7.07;;;6.50;99.90;;;7.69;100.00;101190.91;4952528;28;99703;-61
2021/04/23 06:11:53;;;;;;;11.90;6.73;;;6.50;99.90;;;7.78;100.00;101184.03;4956272;28;97208;-62
2021/04/23 06:15:26;;;;;;;10.93;6.97;;;6.70;99.90;;;7.80;100.00;101182.94;4950797;28;99943;-61
2021/04/23 06:18:39;;;;;;;10.87;6.77;;;6.80;99.90;;;7.76;100.00;101183.31;4913637;28;99667;-61
2021/04/23 06:21:51;;;;;;;13.97;7.17;;;6.90;99.90;;;7.81;100.00;101187.28;4946961;28;100600;-61
2021/04/23 06:25:02;;;;;;;11.57;7.07;;;7.00;99.90;;;7.97;100.00;101191.44;4952373;28;100112;-62
2021/04/23 06:28:14;;;;;;;13.73;6.97;;;7.10;99.90;;;7.86;100.00;101184.28;4948552;28;99994;-61
2021/04/23 06:31:26;;;;;;;12.50;6.77;;;7.10;99.90;;;8.04;100.00;101197.97;4945459;28;100003;-60
2021/04/23 06:34:39;;;;;;;11.27;6.60;;;7.20;99.90;;;8.06;100.00;101199.56;4945328;28;99896;-62
2021/04/23 06:37:50;;;;;;;14.20;7.37;;;7.30;99.90;;;7.91;100.00;101198.13;4952139;28;99970;-62
2021/04/23 06:41:01;;;;;;;11.73;7.50;;;7.40;99.90;;;7.85;100.00;101209.22;4947530;28;99669;-62
2021/04/23 06:44:24;;;;;;;11.20;6.90;;;7.30;99.90;;;7.87;100.00;101209.97;4960014;28;94667;-61
2021/04/23 06:47:35;;;;;;;13.17;8.03;;;7.30;99.90;;;7.92;100.00;101208.63;4949016;28;99648;-61
2021/04/23 06:50:49;;;;;;;12.00;7.10;;;7.30;99.90;;;7.90;100.00;101209.75;4928170;28;100159;-63
2021/04/23 06:54:00;;;;;;;11.10;6.63;;;7.20;99.90;;;8.01;100.00;101200.91;4926836;28;100018;-61
2021/04/23 06:57:11;;;;;;;12.17;6.50;;;7.20;99.90;;;8.02;100.00;101210.59;4930534;28;101272;-63
2021/04/23 07:00:24;;;;;;;12.03;6.80;;;7.30;99.90;;;8.11;100.00;101207.22;4951094;28;101219;-61
2021/04/23 07:03:36;;;;;;;13.17;7.23;;;7.40;99.90;;;8.17;100.00;101212.03;4949723;28;100102;-60
2021/04/23 07:06:49;;;;;;;20.50;6.00;;;7.40;99.90;;;8.04;100.00;101219.31;4958935;28;99743;-59
2021/04/23 07:10:00;;;;;;;10.07;7.27;;;7.40;99.90;;;8.09;100.00;101220.66;4956292;28;99900;-60
2021/04/23 07:13:13;;;;;;;12.00;7.23;;;7.40;99.90;;;8.07;100.00;101209.25;4955340;28;99584;-61
2021/04/23 07:16:24;;;;;;;10.80;7.03;;;7.40;99.90;;;8.05;100.00;101203.19;4963102;28;95544;-59
2021/04/23 07:23:05;;;;;;;13.07;8.00;;;7.50;99.90;;;8.16;100.00;101215.72;4932751;28;99666;-61
2021/04/23 07:26:16;;;;;;;12.43;7.30;;;7.50;99.90;;;8.18;100.00;101216.41;4947804;28;99080;-60
2021/04/23 07:29:27;;;;;;;12.87;7.87;;;7.50;99.80;;;8.37;100.00;101215.88;4955686;28;99732;-60
2021/04/23 07:32:50;;;;;;;13.53;7.40;;;7.60;99.80;;;8.37;100.00;101223.84;4949625;28;99760;-61
2021/04/23 07:36:03;;;;;;;10.63;6.60;;;7.60;99.10;;;8.39;100.00;101217.44;4930602;28;99577;-60
2021/04/23 07:39:15;;;;;;;12.37;7.30;;;7.70;98.70;;;8.37;100.00;101232.72;4925780;28;101788;-61
2021/04/23 07:42:26;;;;;;;14.03;6.77;;;7.80;98.20;;;8.38;100.00;101226.41;4930942;28;100004;-62
2021/04/23 07:45:38;;;;;;;11.50;6.60;;;7.90;98.10;;;8.35;100.00;101233.78;4928979;28;100897;-61
2021/04/23 07:48:50;;;;;;;9.07;6.63;;;7.90;97.10;;;8.47;100.00;101235.50;4912044;28;100173;-60
2021/04/23 07:52:11;;;;;;;10.83;5.10;;;7.90;96.30;;;8.58;100.00;101236.34;4911246;28;100176;-60
2021/04/23 07:55:24;;;;;;;9.77;5.90;;;7.90;95.60;;;8.58;100.00;101236.34;4896889;28;99861;-61
2021/04/23 08:02:29;;;;;;;9.17;4.07;;;7.90;93.80;;;8.56;100.00;101232.94;4931042;28;99588;-61
2021/04/23 08:06:08;;;;;;;10.50;4.50;;;7.90;92.20;;;8.74;100.00;101238.63;4929997;28;99741;-59
2021/04/23 08:12:46;;;;;;;10.23;4.63;;;7.90;90.30;;;8.65;100.00;101245.53;4866263;28;100136;-61
2021/04/23 08:19:46;;;;;;;10.33;4.53;;;8.00;91.40;;;8.88;100.00;101243.72;4922013;28;100451;-61
2021/04/23 08:22:57;;;;;;;8.43;4.10;;;8.00;91.60;;;8.97;100.00;101250.13;4947850;28;99991;-60
2021/04/23 08:26:08;;;;;;;6.60;3.73;;;8.10;91.10;;;8.92;100.00;101250.47;4947561;28;99891;-59
2021/04/23 08:29:32;;;;;;;10.87;4.10;;;8.20;90.10;;;8.69;100.00;101246.16;4952448;28;100671;-60
2021/04/23 08:32:44;;;;;;;6.43;3.73;;;8.30;86.00;;;8.76;100.00;101252.72;4928459;28;100982;-61
2021/04/23 08:35:55;;;;;;;7.00;4.57;;;8.20;84.40;;;8.93;100.00;101254.00;4947135;28;100134;-61
2021/04/23 08:39:07;;;;;;;8.37;4.13;;;8.20;86.20;;;9.06;100.00;101256.53;4947309;28;99981;-62
2021/04/23 08:42:18;;;;;;;7.57;3.90;;;8.30;86.00;;;8.86;100.00;101252.81;4928231;28;100921;-61
2021/04/23 08:45:34;;;;;;;8.67;3.87;;;8.30;84.70;;;8.69;100.00;101253.28;4946071;28;99935;-62
2021/04/23 08:48:47;;;;;;;9.67;4.20;;;8.30;83.40;;;8.91;100.00;101262.13;4946728;28;100144;-62
2021/04/23 08:51:59;;;;;;;11.27;4.67;;;8.30;84.60;;;8.73;100.00;101260.09;4945307;28;100358;-61
2021/04/23 08:58:36;;;;;;;7.40;4.63;;;8.20;84.60;;;8.89;100.00;101268.59;4926047;28;100358;-60
2021/04/23 09:01:48;;;;;;;7.90;3.97;;;8.20;86.00;;;8.80;100.00;101270.16;4923863;28;100203;-62
2021/04/23 09:04:59;;;;;;;8.57;4.37;;;8.20;86.40;;;8.78;100.00;101258.75;4936730;28;100343;-62
2021/04/23 09:08:31;;;;;;;10.33;5.13;;;8.20;86.60;;;9.00;100.00;101258.72;4948309;28;100405;-61
2021/04/23 09:11:58;;;;;;;9.47;4.37;;;8.20;87.40;;;9.02;100.00;101271.97;4946714;28;100063;-60
2021/04/23 09:15:15;;;;;;;10.40;4.50;;;8.30;87.70;;;8.96;100.00;101270.63;4944080;28;100010;-60
2021/04/23 09:22:29;;;;;;;12.00;4.80;;;8.40;86.20;;;9.24;100.00;101279.06;4918385;28;101585;-61
2021/04/23 09:26:00;;;;;;;6.20;4.40;;;8.40;86.80;;;9.03;100.00;101270.97;4946336;28;100053;-61
2021/04/23 09:29:11;;;;;;;10.43;5.50;;;8.40;86.00;;;9.22;100.00;101281.00;4944831;28;100469;-61
2021/04/23 09:32:30;;;;;;;8.43;4.90;;;8.40;86.40;;;9.53;100.00;101285.50;4946142;28;100398;-61
2021/04/23 09:35:54;;;;;;;6.60;4.43;;;8.40;88.00;;;9.84;100.00;101289.16;4947959;28;101542;-61
2021/04/23 09:39:19;;;;;;;8.47;4.37;;;8.60;87.90;;;9.96;100.00;101279.25;4946532;28;100151;-61
2021/04/23 09:42:43;;;;;;;9.43;4.63;;;8.90;85.90;;;10.15;100.00;101282.03;4946044;28;100053;-62
2021/04/23 09:46:21;;;;;;;7.90;4.77;;;9.30;83.40;;;10.07;100.00;101274.69;4945699;28;100008;-62
2021/04/23 09:50:09;;;;;;;9.80;4.97;;;9.60;79.60;;;10.33;100.00;101287.69;4907907;28;100661;-61
2021/04/23 09:53:21;;;;;;;9.97;4.30;;;9.80;77.90;;;9.97;100.00;101291.63;4860654;28;101208;-60
2021/04/23 09:56:50;;;;;;;11.27;4.67;;;10.00;76.50;;;10.17;100.00;101293.47;4945683;28;100047;-61
2021/04/23 10:00:16;;;;;;;8.10;4.67;;;10.10;74.10;;;10.57;100.00;101290.06;4926877;28;100246;-62
2021/04/23 10:03:28;;;;;;;9.67;4.70;;;10.30;74.50;;;10.62;100.00;101290.50;4945307;28;100035;-60
2021/04/23 10:06:53;;;;;;;7.77;4.37;;;10.50;71.40;;;10.56;100.00;101270.47;4947942;28;100405;-60
2021/04/23 10:10:16;;;;;;;6.53;4.60;;;10.80;69.40;;;11.22;100.00;101272.66;4945491;28;100016;-60
2021/04/23 10:13:36;;;;;;;7.00;4.23;;;11.10;69.20;;;11.25;100.00;101283.94;4945885;28;100547;-62
2021/04/23 10:17:03;;;;;;;7.47;4.20;;;11.30;68.50;;;10.75;100.00;101283.94;4944117;28;100329;-61
2021/04/23 10:20:17;;;;;;;10.63;4.30;;;11.50;64.10;;;10.80;100.00;101278.19;4945339;28;100184;-62
2021/04/23 10:23:31;;;;;;;8.10;4.60;;;11.60;63.00;;;11.57;100.00;101281.03;4950790;28;99822;-60
2021/04/23 10:26:48;;;;;;;7.10;4.70;;;12.00;62.90;;;11.19;100.00;101284.50;4946220;28;99889;-60
2021/04/23 10:30:13;;;;;;;10.03;4.40;;;12.20;59.40;;;11.45;100.00;101279.47;4945396;28;100035;-61
2021/04/23 10:33:26;;;;;;;7.43;4.27;;;12.30;59.50;;;11.04;100.00;101283.19;4947905;28;100106;-60
2021/04/23 10:36:38;;;;;;;10.97;4.57;;;12.50;58.20;;;10.85;100.00;101275.94;4928804;28;100189;-61
2021/04/23 10:39:51;;;;;;;9.43;4.60;;;12.40;58.30;;;11.27;100.00;101270.41;4929523;28;100182;-60
2021/04/23 10:43:29;;;;;;;5.13;3.83;;;12.20;58.40;;;11.62;100.00;101276.06;4950459;28;100007;-61
2021/04/23 10:50:57;;;;;;;8.67;4.87;;;12.50;57.80;;;11.29;100.00;101266.59;4912305;28;100236;-61
2021/04/23 10:54:16;;;;;;;8.87;4.70;;;12.60;57.10;;;11.33;100.00;101275.22;4958366;28;100128;-61
2021/04/23 10:57:27;;;;;;;7.30;4.57;;;12.40;56.70;;;12.05;100.00;101272.97;4964794;28;100148;-62
2021/04/23 11:01:02;;;;;;;6.03;4.50;;;12.30;57.80;;;12.64;100.00;101277.19;4939367;28;102464;-62
2021/04/23 11:04:26;;;;;;;7.53;4.13;;;12.70;58.30;;;13.08;100.00;101277.41;4941333;28;99797;-60
2021/04/23 11:07:38;;;;;;;7.17;3.90;;;13.30;57.80;;;12.14;100.00;101271.25;4963783;28;100110;-60
2021/04/23 11:11:18;;;;;;;9.87;4.10;;;13.80;54.40;;;11.37;100.00;101285.53;4953748;28;99499;-60
2021/04/23 11:14:56;;;;;;;6.60;4.00;;;13.90;52.00;;;11.39;100.00;101280.84;4970216;28;100201;-61
2021/04/23 11:18:08;;;;;;;8.33;5.03;;;13.50;52.60;;;11.56;100.00;101284.69;4909041;28;98624;-62
2021/04/23 11:21:33;;;;;;;7.87;4.27;;;13.30;53.20;;;11.75;100.00;101297.22;4972988;28;99936;-61
2021/04/23 11:24:45;;;;;;;8.30;4.03;;;13.20;54.00;;;11.96;100.00;101284.56;4945613;28;99661;-60
2021/04/23 11:28:13;;;;;;;7.13;4.00;;;13.10;53.10;;;12.39;100.00;101280.50;4958787;28;99588;-61
2021/04/23 11:31:36;;;;;;;7.60;4.30;;;13.50;53.30;;;12.03;100.00;101283.00;4962448;28;100101;-62
2021/04/23 11:35:02;;;;;;;5.90;4.07;;;13.70;51.70;;;12.28;100.00;101276.16;4968255;28;100076;-61
2021/04/23 11:38:18;;;;;;;6.53;4.07;;;13.80;52.00;;;11.83;100.00;101281.34;4964917;28;100213;-61
2021/04/23 11:41:43;;;;;;;6.00;3.97;;;13.80;51.60;;;11.84;100.00;101278.50;4964632;28;100813;-61
2021/04/23 11:45:16;;;;;;;7.83;3.67;;;13.70;51.40;;;12.51;100.00;101279.34;4948510;28;100193;-61
2021/04/23 11:49:11;;;;;;;8.10;4.33;;;14.00;51.90;;;12.58;100.00;101278.63;4965538;28;99955;-60
2021/04/23 11:52:36;;;;;;;6.60;3.87;;;14.20;51.20;;;12.56;100.00;101283.28;4912440;28;100002;-62
2021/04/23 11:56:18;;;;;;;6.43;3.87;;;14.30;50.00;;;12.29;100.00;101280.53;4931020;28;100455;-59
2021/04/23 11:59:32;;;;;;;7.27;3.30;;;14.30;49.80;;;12.96;100.00;101271.41;4829088;28;100244;-61
2021/04/23 12:03:11;;;;;;;7.80;4.30;;;14.60;49.50;;;12.63;100.00;101280.00;4836828;28;96487;-60
2021/04/23 12:06:25;;;;;;;6.07;3.57;;;15.00;48.60;;;12.62;100.00;101284.53;4911312;28;96484;-61
2021/04/23 12:09:43;;;;;;;7.37;3.90;;;14.90;48.50;;;12.45;100.00;101288.00;4955562;28;98198;-61
2021/04/23 12:13:07;;;;;;;5.97;3.43;;;15.00;47.80;;;12.76;100.00;101284.06;4964504;28;93432;-61
2021/04/23 12:16:21;;;;;;;5.13;3.40;;;15.10;47.40;;;13.62;100.00;101284.53;4958686;28;97969;-62
2021/04/23 12:19:43;;;;;;;6.87;3.70;;;15.30;47.70;;;12.37;100.00;101282.50;4965253;28;99589;-62
2021/04/23 12:23:07;;;;;;;8.30;3.80;;;15.30;46.80;;;12.53;100.00;101282.75;4958992;28;96668;-62
2021/04/23 12:26:20;;;;;;;7.00;3.73;;;15.00;46.80;;;12.96;100.00;101276.78;4954167;28;98621;-60
2021/04/23 12:29:32;;;;;;;7.23;4.03;;;14.90;47.20;;;13.21;100.00;101277.94;4954646;28;100108;-61
2021/04/23 12:32:43;;;;;;;6.10;3.53;;;14.90;47.50;;;13.93;100.00;101275.09;4951336;28;98974;-62
2021/04/23 12:36:01;;;;;;;7.35;3.50;;;15.30;47.40;;;13.51;94.45;101274.03;4959005;28;98596;-61
2021/04/23 12:39:19;;;;;;;6.05;3.50;;;15.90;46.00;;;13.52;100.00;101268.50;4962258;28;95802;-62
2021/04/23 12:42:35;;;;;;;6.55;3.40;;;16.20;44.50;;;13.82;100.00;101263.72;4951508;28;89029;-62
2021/04/23 12:45:49;;;;;;;4.40;2.63;;;16.30;45.00;;;13.31;99.58;101270.63;4947424;28;94594;-61
2021/04/23 12:49:06;;;;;;;7.07;3.45;;;16.50;44.00;;;13.21;100.00;101273.41;4974416;28;92548;-61
2021/04/23 12:52:20;;;;;;;5.82;3.33;;;16.50;43.50;;;13.33;100.00;101267.81;4981205;28;87499;-62
2021/04/23 12:55:32;;;;;;;8.98;4.13;;;16.30;43.80;;;12.75;100.00;101270.78;4945055;28;96936;-60
2021/04/23 12:58:44;;;;;;;5.85;3.97;;;15.80;44.60;;;12.75;100.00;101273.47;4948959;28;101531;-62
2021/04/23 13:02:02;;;;;;;6.43;3.80;;;15.10;46.00;;;13.11;100.00;101266.34;4954845;28;99719;-61
2021/04/23 13:09:17;;;;;;;5.97;4.28;;;14.70;47.80;;;12.97;100.00;101270.41;4939275;28;98234;-60
2021/04/23 13:16:11;;;;;;;7.90;3.90;;;14.40;48.70;;;13.43;100.00;101258.66;4944244;28;96318;-60
2021/04/23 13:23:04;;;;;;;11.77;4.60;;;14.70;47.20;;;13.59;100.00;101252.59;4959402;28;94428;-61
2021/04/23 13:26:15;;;;;;;8.65;4.28;;;15.00;47.50;;;13.08;100.00;101261.28;4961009;28;95446;-61
2021/04/23 13:29:28;;;;;;;6.47;3.53;;;14.90;46.70;;;13.08;100.00;101258.59;4965239;28;92895;-61
2021/04/23 13:32:39;;;;;;;8.67;4.10;;;14.50;47.40;;;13.27;100.00;101261.19;4950886;28;90152;-61
2021/04/23 13:35:58;;;;;;;6.90;4.13;;;14.30;48.20;;;13.21;100.00;101259.97;4957268;28;93472;-60
2021/04/23 13:39:15;;;;;;;8.67;4.13;;;14.30;48.80;;;13.50;100.00;101246.28;4951176;28;99673;-61
2021/04/23 13:42:32;;;;;;;6.73;4.00;;;14.20;48.70;;;13.46;100.00;101247.63;4957985;28;93214;-61
2021/04/23 13:45:44;;;;;;;9.37;4.90;;;14.20;48.50;;;13.80;100.00;101247.75;4961749;28;93273;-60
2021/04/23 13:48:57;;;;;;;8.03;3.93;;;14.40;48.70;;;13.73;100.00;101245.81;4948955;28;85220;-61
2021/04/23 13:52:18;;;;;;;11.83;3.90;;;14.50;48.20;;;13.24;100.00;101248.88;4974457;28;84084;-62
2021/04/23 13:55:34;;;;;;;5.67;4.07;;;14.50;48.30;;;13.78;100.00;101249.75;4957029;28;88803;-61
2021/04/23 13:58:51;;;;;;;6.07;3.47;;;14.40;48.20;;;13.99;100.00;101238.63;4967910;28;82865;-62
2021/04/23 14:02:17;;;;;;;10.23;4.67;;;14.60;48.50;;;13.55;100.00;101252.06;4941913;28;93004;-61
2021/04/23 14:05:31;;;;;;;6.05;3.70;;;14.60;47.90;;;13.99;100.00;101244.84;4944803;28;94632;-61
2021/04/23 14:08:44;;;;;;;5.37;3.30;;;14.60;48.30;;;14.21;100.00;101246.22;4951707;28;94991;-62
2021/04/23 14:11:58;;;;;;;6.67;3.47;;;14.90;48.50;;;13.84;100.00;101259.03;4969161;28;90126;-61
2021/04/23 14:15:27;;;;;;;7.73;3.47;;;15.00;47.60;;;13.56;100.00;101253.75;4971855;28;93663;-62
2021/04/23 14:19:07;;;;;;;7.95;4.22;;;15.10;47.40;;;13.53;100.00;101251.38;4957527;28;89950;-62
2021/04/23 14:22:20;;;;;;;7.63;4.67;;;15.00;47.20;;;13.35;100.00;101244.31;4972497;28;92799;-62
2021/04/23 14:25:32;;;;;;;6.88;4.45;;;14.80;47.20;;;13.10;100.00;101248.56;4957396;28;88738;-62